Time,TemperatureF,DewpointF,PressureIn,WindDirection,WindDirectionDegrees,WindSpeedMPH,WindSpeedGustMPH,Humidity,HourlyPrecipIn,Conditions,Clouds,dailyrainin,SolarRadiationWatts/m^2,SoftwareType,DateUTC
2013-02-06 00:08:00,68.0,-99.9,29.98,ESE,119,0.0,2.0,0,0.00,,,0.00,0,weatherlink.com 1.10,2013-02-06 04:08:00,
2013-02-06 00:23:00,68.1,-99.9,29.98,ESE,119,0.0,1.0,0,0.00,,,0.00,0,weatherlink.com 1.10,2013-02-06 04:23:00,
2013-02-06 00:38:00,68.2,-99.9,29.98,ESE,119,0.0,3.0,0,0.00,,,0.00,0,weatherlink.com 1.10,2013-02-06 04:38:00,
2013-02-06 00:53:00,68.1,-99.9,29.98,ESE,119,0.0,2.0,0,0.00,,,0.00,0,weatherlink.com 1.10,2013-02-06 04:53:00,
2013-02-06 01:08:00,68.3,-99.9,29.98,ESE,119,2.0,3.0,0,0.00,,,0.00,0,weatherlink.com 1.10,2013-02-06 05:08:00,
2013-02-06 01:23:00,68.3,-99.9,29.97,ESE,119,0.0,3.0,0,0.00,,,0.00,0,weatherlink.com 1.10,2013-02-06 05:23:00,
2013-02-06 01:38:00,68.3,-99.9,29.96,ESE,119,1.0,3.0,0,0.00,,,0.00,0,weatherlink.com 1.10,2013-02-06 05:38:00,
2013-02-06 01:53:00,67.9,-99.9,29.96,ESE,119,1.0,2.0,0,0.00,,,0.00,0,weatherlink.com 1.10,2013-02-06 05:53:00,
2013-02-06 02:08:00,67.9,-99.9,29.95,ESE,119,0.0,2.0,0,0.00,,,0.00,0,weatherlink.com 1.10,2013-02-06 06:08:00,
2013-02-06 02:39:00,67.8,-99.9,29.95,ESE,119,0.0,2.0,0,0.00,,,0.00,0,weatherlink.com 1.10,2013-02-06 06:39:00,
2013-02-06 02:54:00,67.7,-99.9,29.94,ESE,119,0.0,2.0,0,0.00,,,0.00,0,weatherlink.com 1.10,2013-02-06 06:54:00,
2013-02-06 03:09:00,67.7,-99.9,29.94,ESE,119,0.0,3.0,0,0.00,,,0.00,0,weatherlink.com 1.10,2013-02-06 07:09:00,
2013-02-06 03:24:00,67.9,-99.9,29.94,South,176,0.0,3.0,0,0.01,,,0.01,0,weatherlink.com 1.10,2013-02-06 07:24:00,
2013-02-06 03:39:00,68.6,-99.9,29.94,SE,135,1.0,4.0,0,0.01,,,0.01,0,weatherlink.com 1.10,2013-02-06 07:39:00,
2013-02-06 03:54:00,68.4,-99.9,29.94,SE,134,1.0,2.0,0,0.01,,,0.01,0,weatherlink.com 1.10,2013-02-06 07:54:00,
2013-02-06 04:09:00,68.0,-99.9,29.94,SE,134,0.0,2.0,0,0.01,,,0.01,0,weatherlink.com 1.10,2013-02-06 08:09:00,
2013-02-06 04:24:00,68.1,-99.9,29.94,SE,134,0.0,2.0,0,0.00,,,0.01,0,weatherlink.com 1.10,2013-02-06 08:24:00,
2013-02-06 04:39:00,67.8,-99.9,29.94,SSW,212,2.0,3.0,0,0.00,,,0.01,0,weatherlink.com 1.10,2013-02-06 08:39:00,
2013-02-06 04:54:00,67.7,-99.9,29.95,SSW,212,0.0,2.0,0,0.00,,,0.01,0,weatherlink.com 1.10,2013-02-06 08:54:00,
2013-02-06 05:09:00,67.8,-99.9,29.95,SSW,211,1.0,2.0,0,0.00,,,0.00,0,weatherlink.com 1.10,2013-02-06 09:09:00,
2013-02-06 05:25:00,67.8,-99.9,29.95,ENE,71,0.0,1.0,0,0.00,,,0.00,0,weatherlink.com 1.10,2013-02-06 09:25:00,
2013-02-06 05:40:00,68.0,-99.9,29.95,ENE,71,0.0,1.0,0,0.00,,,0.00,0,weatherlink.com 1.10,2013-02-06 09:40:00,
2013-02-06 05:55:00,68.1,-99.9,29.96,ENE,71,0.0,0.0,0,0.00,,,0.00,0,weatherlink.com 1.10,2013-02-06 09:55:00,
2013-02-06 06:10:00,67.8,-99.9,29.98,ENE,71,0.0,8.0,0,0.00,,,0.00,0,weatherlink.com 1.10,2013-02-06 10:10:00,
2013-02-06 06:25:00,67.7,-99.9,29.97,South,184,3.0,4.0,0,0.00,,,0.00,0,weatherlink.com 1.10,2013-02-06 10:25:00,
2013-02-06 06:40:00,68.6,-99.9,29.97,SE,141,4.0,9.0,0,0.01,,,0.01,0,weatherlink.com 1.10,2013-02-06 10:40:00,
2013-02-06 06:55:00,69.5,-99.9,29.98,East,88,2.0,7.0,0,0.01,,,0.01,0,weatherlink.com 1.10,2013-02-06 10:55:00,
2013-02-06 07:10:00,68.3,-99.9,29.99,ENE,69,1.0,5.0,0,0.01,,,0.01,0,weatherlink.com 1.10,2013-02-06 11:10:00,
2013-02-06 07:25:00,68.1,-99.9,30.00,ENE,69,0.0,1.0,0,0.01,,,0.01,12,weatherlink.com 1.10,2013-02-06 11:25:00,
2013-02-06 07:40:00,68.1,-99.9,29.99,ENE,69,0.0,3.0,0,0.00,,,0.01,65,weatherlink.com 1.10,2013-02-06 11:40:00,
2013-02-06 07:55:00,68.2,-99.9,30.00,ENE,69,0.0,4.0,0,0.00,,,0.01,79,weatherlink.com 1.10,2013-02-06 11:55:00,
2013-02-06 08:10:00,68.3,-99.9,30.00,ENE,69,0.0,2.0,0,0.00,,,0.01,128,weatherlink.com 1.10,2013-02-06 12:10:00,
2013-02-06 08:25:00,68.3,-99.9,30.01,SSW,208,0.0,5.0,0,0.00,,,0.01,137,weatherlink.com 1.10,2013-02-06 12:25:00,
2013-02-06 08:40:00,68.6,-99.9,30.01,SSW,208,0.0,0.0,0,0.00,,,0.01,186,weatherlink.com 1.10,2013-02-06 12:40:00,
2013-02-06 08:55:00,70.8,-99.9,30.02,SSW,208,0.0,1.0,0,0.00,,,0.01,244,weatherlink.com 1.10,2013-02-06 12:55:00,
2013-02-06 09:11:00,72.8,-99.9,30.02,SSW,208,0.0,2.0,0,0.00,,,0.01,473,weatherlink.com 1.10,2013-02-06 13:11:00,
2013-02-06 09:26:00,73.5,-99.9,30.02,East,91,2.0,3.0,0,0.00,,,0.01,100,weatherlink.com 1.10,2013-02-06 13:26:00,
2013-02-06 09:41:00,72.1,-99.9,30.02,SE,139,4.0,5.0,0,0.00,,,0.01,295,weatherlink.com 1.10,2013-02-06 13:41:00,
2013-02-06 09:56:00,72.0,-99.9,30.02,SE,129,4.0,9.0,0,0.00,,,0.01,420,weatherlink.com 1.10,2013-02-06 13:56:00,
2013-02-06 10:11:00,73.2,-99.9,30.02,ESE,123,2.0,8.0,0,0.00,,,0.01,529,weatherlink.com 1.10,2013-02-06 14:11:00,
2013-02-06 10:26:00,75.8,-99.9,30.02,SE,139,2.0,8.0,0,0.00,,,0.01,694,weatherlink.com 1.10,2013-02-06 14:26:00,
2013-02-06 10:41:00,76.1,-99.9,30.02,SE,124,3.0,7.0,0,0.00,,,0.01,831,weatherlink.com 1.10,2013-02-06 14:41:00,
2013-02-06 10:56:00,76.1,-99.9,30.01,East,79,0.0,6.0,0,0.00,,,0.01,318,weatherlink.com 1.10,2013-02-06 14:56:00,
2013-02-06 11:11:00,78.5,-99.9,30.01,SE,141,1.0,6.0,0,0.00,,,0.01,835,weatherlink.com 1.10,2013-02-06 15:11:00,
2013-02-06 11:26:00,77.7,21.0,30.00,South,178,1.0,9.0,12,0.00,,,0.01,274,weatherlink.com 1.10,2013-02-06 15:26:00,
2013-02-06 11:41:00,77.2,-99.9,30.00,East,79,3.0,7.0,0,0.00,,,0.01,313,weatherlink.com 1.10,2013-02-06 15:41:00,
2013-02-06 11:56:00,76.7,-99.9,29.99,SSW,193,1.0,9.0,0,0.00,,,0.01,487,weatherlink.com 1.10,2013-02-06 15:56:00,
2013-02-06 12:11:00,78.0,-31.0,29.99,ESE,118,1.0,8.0,1,0.00,,,0.01,675,weatherlink.com 1.10,2013-02-06 16:11:00,
2013-02-06 12:26:00,79.0,38.0,29.98,East,98,3.0,10.0,23,0.00,,,0.01,490,weatherlink.com 1.10,2013-02-06 16:26:00,
2013-02-06 12:42:00,80.0,41.0,29.98,SE,144,1.0,5.0,25,0.00,,,0.01,694,weatherlink.com 1.10,2013-02-06 16:42:00,
2013-02-06 12:57:00,79.9,37.0,29.97,ESE,102,4.0,7.0,21,0.00,,,0.01,483,weatherlink.com 1.10,2013-02-06 16:57:00,
2013-02-06 13:12:00,79.2,35.0,29.96,East,100,2.0,8.0,20,0.00,,,0.01,355,weatherlink.com 1.10,2013-02-06 17:12:00,
2013-02-06 13:27:00,79.9,42.0,29.95,ESE,119,3.0,9.0,26,0.00,,,0.01,721,weatherlink.com 1.10,2013-02-06 17:27:00,
2013-02-06 13:42:00,79.8,59.0,29.95,East,95,2.0,9.0,50,0.00,,,0.01,666,weatherlink.com 1.10,2013-02-06 17:42:00,
2013-02-06 13:57:00,79.8,57.0,29.94,ENE,64,3.0,11.0,46,0.00,,,0.01,816,weatherlink.com 1.10,2013-02-06 17:57:00,
2013-02-06 14:12:00,80.7,59.0,29.94,East,93,3.0,9.0,48,0.00,,,0.01,737,weatherlink.com 1.10,2013-02-06 18:12:00,
2013-02-06 14:27:00,79.8,58.0,29.93,SE,130,4.0,11.0,47,0.00,,,0.01,561,weatherlink.com 1.10,2013-02-06 18:27:00,
2013-02-06 14:42:00,80.3,60.0,29.93,ESE,112,1.0,10.0,51,0.00,,,0.01,803,weatherlink.com 1.10,2013-02-06 18:42:00,
2013-02-06 14:57:00,80.6,61.0,29.93,SSE,167,3.0,9.0,52,0.00,,,0.01,729,weatherlink.com 1.10,2013-02-06 18:57:00,
2013-02-06 15:12:00,81.0,62.0,29.93,SE,146,3.0,11.0,52,0.00,,,0.01,728,weatherlink.com 1.10,2013-02-06 19:12:00,
2013-02-06 15:27:00,82.1,63.0,29.92,ESE,108,2.0,9.0,53,0.00,,,0.01,339,weatherlink.com 1.10,2013-02-06 19:27:00,
2013-02-06 15:43:00,80.0,61.0,29.92,SE,140,0.0,5.0,52,0.00,,,0.01,406,weatherlink.com 1.10,2013-02-06 19:43:00,
2013-02-06 15:58:00,79.8,60.0,29.92,East,101,0.0,7.0,51,0.00,,,0.01,596,weatherlink.com 1.10,2013-02-06 19:58:00,
2013-02-06 16:13:00,79.7,58.0,29.92,East,82,2.0,6.0,48,0.00,,,0.01,592,weatherlink.com 1.10,2013-02-06 20:13:00,
2013-02-06 16:28:00,80.7,59.0,29.92,South,189,1.0,8.0,48,0.00,,,0.01,408,weatherlink.com 1.10,2013-02-06 20:28:00,
2013-02-06 16:43:00,79.9,59.0,29.92,ESE,107,1.0,6.0,49,0.00,,,0.01,346,weatherlink.com 1.10,2013-02-06 20:43:00,
2013-02-06 16:58:00,78.9,54.0,29.92,SSE,150,4.0,6.0,43,0.00,,,0.01,148,weatherlink.com 1.10,2013-02-06 20:58:00,
2013-02-06 17:13:00,78.3,43.0,29.92,ESE,117,3.0,5.0,28,0.00,,,0.01,230,weatherlink.com 1.10,2013-02-06 21:13:00,
2013-02-06 17:28:00,78.6,39.0,29.92,ESE,103,0.0,5.0,24,0.00,,,0.01,171,weatherlink.com 1.10,2013-02-06 21:28:00,
2013-02-06 17:43:00,78.4,44.0,29.93,SSE,167,2.0,7.0,29,0.00,,,0.01,90,weatherlink.com 1.10,2013-02-06 21:43:00,
2013-02-06 17:58:00,77.3,28.0,29.93,SSE,148,0.0,5.0,16,0.00,,,0.01,39,weatherlink.com 1.10,2013-02-06 21:58:00,
2013-02-06 18:13:00,76.0,-19.0,29.93,SSE,149,4.0,5.0,2,0.00,,,0.01,12,weatherlink.com 1.10,2013-02-06 22:13:00,
2013-02-06 18:28:00,74.9,-99.9,29.93,SSE,154,0.0,3.0,0,0.00,,,0.01,0,weatherlink.com 1.10,2013-02-06 22:28:00,
2013-02-06 18:44:00,74.2,-99.9,29.93,ENE,76,2.0,3.0,0,0.00,,,0.01,0,weatherlink.com 1.10,2013-02-06 22:44:00,
2013-02-06 18:58:00,73.6,-99.9,29.94,East,83,1.0,3.0,0,0.00,,,0.01,0,weatherlink.com 1.10,2013-02-06 22:58:00,
2013-02-06 19:13:00,73.3,-99.9,29.94,SE,126,0.0,5.0,0,0.00,,,0.01,0,weatherlink.com 1.10,2013-02-06 23:13:00,
2013-02-06 19:29:00,73.1,-99.9,29.95,SE,144,1.0,4.0,0,0.00,,,0.01,0,weatherlink.com 1.10,2013-02-06 23:29:00,
2013-02-06 19:44:00,72.6,-99.9,29.95,SE,144,0.0,4.0,0,0.00,,,0.01,0,weatherlink.com 1.10,2013-02-06 23:44:00,
2013-02-06 19:59:00,71.5,-99.9,29.96,SE,141,0.0,5.0,0,0.00,,,0.01,0,weatherlink.com 1.10,2013-02-06 23:59:00,
2013-02-06 20:14:00,70.9,-99.9,29.96,SE,146,0.0,3.0,0,0.00,,,0.01,0,weatherlink.com 1.10,2013-02-07 00:14:00,
2013-02-06 20:29:00,70.4,-99.9,29.97,SE,146,0.0,2.0,0,0.00,,,0.01,0,weatherlink.com 1.10,2013-02-07 00:29:00,
2013-02-06 20:44:00,70.2,-99.9,29.97,SE,146,0.0,1.0,0,0.00,,,0.01,0,weatherlink.com 1.10,2013-02-07 00:44:00,
2013-02-06 20:59:00,70.1,-99.9,29.97,SE,146,0.0,1.0,0,0.00,,,0.01,0,weatherlink.com 1.10,2013-02-07 00:59:00,
2013-02-06 21:14:00,70.0,-99.9,29.97,SE,146,0.0,1.0,0,0.00,,,0.01,0,weatherlink.com 1.10,2013-02-07 01:14:00,
2013-02-06 21:29:00,70.4,-99.9,29.98,SE,146,0.0,2.0,0,0.00,,,0.01,0,weatherlink.com 1.10,2013-02-07 01:29:00,
2013-02-06 21:44:00,70.0,-99.9,29.98,SE,146,0.0,0.0,0,0.00,,,0.01,0,weatherlink.com 1.10,2013-02-07 01:44:00,
2013-02-06 21:59:00,70.1,-99.9,29.98,SE,146,0.0,0.0,0,0.00,,,0.01,0,weatherlink.com 1.10,2013-02-07 01:59:00,
2013-02-06 22:14:00,69.9,-99.9,29.99,SE,146,0.0,0.0,0,0.00,,,0.01,0,weatherlink.com 1.10,2013-02-07 02:14:00,
2013-02-06 22:29:00,69.7,-99.9,29.99,SE,146,0.0,1.0,0,0.00,,,0.01,0,weatherlink.com 1.10,2013-02-07 02:29:00,
2013-02-06 22:45:00,69.5,-99.9,29.99,SSW,198,0.0,3.0,0,0.00,,,0.01,0,weatherlink.com 1.10,2013-02-07 02:45:00,
2013-02-06 23:00:00,68.8,-99.9,29.99,SSW,198,0.0,1.0,0,0.00,,,0.01,0,weatherlink.com 1.10,2013-02-07 03:00:00,
2013-02-06 23:15:00,68.0,-99.9,29.99,SSW,198,1.0,2.0,0,0.00,,,0.01,0,weatherlink.com 1.10,2013-02-07 03:15:00,
2013-02-06 23:30:00,68.1,-99.9,29.99,SW,236,1.0,4.0,0,0.00,,,0.01,0,weatherlink.com 1.10,2013-02-07 03:30:00,
2013-02-06 23:45:00,68.6,-99.9,29.98,WSW,248,0.0,4.0,0,0.00,,,0.01,0,weatherlink.com 1.10,2013-02-07 03:45:00,